Time;durP1;ratioP1;P1;durP2;ratioP2;P2;SDS_P1;SDS_P2;PMS_P1;PMS_P2;Temp;Humidity;BMP_temperature;BMP_pressure;BME280_temperature;BME280_humidity;BME280_pressure;Samples;Min_cycle;Max_cycle;Signal;HPM_P1;HPM_P2
2021/03/05 00:00:33;;;;;;;8.57;3.03;;;7.80;99.90;;;;;;5101376;28;20201;-76
2021/03/05 00:03:01;;;;;;;7.15;2.80;;;7.80;99.90;;;;;;5113597;28;20676;-76
2021/03/05 00:05:27;;;;;;;4.45;2.90;;;7.80;99.90;;;;;;5112194;28;20200;-76
2021/03/05 00:07:53;;;;;;;4.05;2.92;;;7.90;99.90;;;;;;5102248;28;20205;-75
2021/03/05 00:10:25;;;;;;;4.30;2.55;;;7.80;99.90;;;;;;5112752;28;20209;-76
2021/03/05 00:12:51;;;;;;;4.38;2.42;;;7.80;99.90;;;;;;5112503;28;20173;-76
2021/03/05 00:15:17;;;;;;;7.03;2.88;;;7.80;99.90;;;;;;5093284;28;20201;-76
2021/03/05 00:17:43;;;;;;;4.00;2.40;;;7.80;99.90;;;;;;5111040;28;20208;-76
2021/03/05 00:20:14;;;;;;;4.38;2.40;;;7.90;99.90;;;;;;5108481;28;20559;-76
2021/03/05 00:22:41;;;;;;;7.20;3.60;;;7.80;99.90;;;;;;5098023;28;20228;-76
2021/03/05 00:25:08;;;;;;;3.70;2.40;;;7.90;99.90;;;;;;5110371;28;20196;-76
2021/03/05 00:27:35;;;;;;;4.35;2.72;;;7.80;99.90;;;;;;5110474;28;20701;-76
2021/03/05 00:30:01;;;;;;;3.35;2.55;;;7.90;99.90;;;;;;5092851;28;20236;-76
2021/03/05 00:32:27;;;;;;;5.50;2.85;;;7.90;99.90;;;;;;5092478;28;20540;-75
2021/03/05 00:34:53;;;;;;;5.85;2.50;;;7.80;99.90;;;;;;5092331;27;20205;-75
2021/03/05 00:37:21;;;;;;;6.63;3.20;;;7.80;99.90;;;;;;5093784;27;20194;-76
2021/03/05 00:39:47;;;;;;;3.17;2.40;;;7.90;99.90;;;;;;5112811;28;20208;-75
2021/03/05 00:42:13;;;;;;;8.63;3.20;;;7.90;99.90;;;;;;5092170;28;20275;-76
2021/03/05 00:44:39;;;;;;;6.47;3.20;;;7.90;99.90;;;;;;5091996;28;20641;-76
2021/03/05 00:47:05;;;;;;;10.43;2.50;;;7.90;99.90;;;;;;5102917;28;20209;-76
2021/03/05 00:49:31;;;;;;;7.65;4.57;;;7.90;99.90;;;;;;5108629;28;20197;-76
2021/03/05 00:51:58;;;;;;;6.07;5.43;;;7.90;99.90;;;;;;5108681;28;20200;-75
2021/03/05 00:54:25;;;;;;;5.43;3.50;;;7.90;99.90;;;;;;5092243;28;20209;-77
2021/03/05 00:56:51;;;;;;;4.80;3.25;;;7.90;99.90;;;;;;5091888;28;20193;-76
2021/03/05 00:59:17;;;;;;;12.10;5.90;;;7.80;99.90;;;;;;5091219;27;20193;-75
2021/03/05 01:01:44;;;;;;;8.13;7.32;;;7.80;99.90;;;;;;5095283;28;20217;-75
2021/03/05 01:04:10;;;;;;;8.50;4.53;;;7.70;99.90;;;;;;5092065;28;20202;-76
2021/03/05 01:06:36;;;;;;;9.98;6.53;;;7.70;99.90;;;;;;5092492;27;20193;-75
2021/03/05 01:09:04;;;;;;;10.18;7.50;;;7.70;99.90;;;;;;5097625;28;20197;-76
2021/03/05 01:11:31;;;;;;;19.23;7.50;;;7.60;99.90;;;;;;5092026;28;20212;-76
2021/03/05 01:13:57;;;;;;;8.82;6.13;;;7.60;99.90;;;;;;5092233;28;20233;-76
2021/03/05 01:16:23;;;;;;;8.90;6.97;;;7.60;99.90;;;;;;5091192;28;20216;-76
2021/03/05 01:18:52;;;;;;;8.63;6.15;;;7.60;99.90;;;;;;5106767;28;20193;-76
2021/03/05 01:21:18;;;;;;;12.98;7.13;;;7.60;99.90;;;;;;5091721;28;20189;-75
2021/03/05 01:23:45;;;;;;;9.48;7.53;;;7.60;99.90;;;;;;5090961;28;20570;-75
2021/03/05 01:26:11;;;;;;;9.75;6.80;;;7.60;99.90;;;;;;5095954;28;20196;-75
2021/03/05 01:28:40;;;;;;;9.75;6.75;;;7.60;99.90;;;;;;5107920;28;20220;-75
2021/03/05 01:31:06;;;;;;;14.32;9.02;;;7.70;99.90;;;;;;5111934;28;20212;-75
2021/03/05 01:33:33;;;;;;;12.57;8.82;;;7.60;99.90;;;;;;5095058;28;20193;-75
2021/03/05 01:35:59;;;;;;;7.65;5.75;;;7.70;99.90;;;;;;5100618;28;20208;-75
2021/03/05 01:38:25;;;;;;;11.95;7.60;;;7.60;99.90;;;;;;5098488;28;20192;-74
2021/03/05 01:40:51;;;;;;;10.65;7.70;;;7.60;99.90;;;;;;5102488;28;20707;-74
2021/03/05 01:43:18;;;;;;;11.55;7.60;;;7.70;99.90;;;;;;5090810;28;20213;-75
2021/03/05 01:45:46;;;;;;;9.85;8.75;;;7.60;99.90;;;;;;5106250;28;20710;-74
2021/03/05 01:48:14;;;;;;;12.15;9.13;;;7.60;99.90;;;;;;5102127;28;20202;-74
2021/03/05 01:50:50;;;;;;;11.70;8.15;;;7.60;99.90;;;;;;5104515;28;20246;-75
2021/03/05 01:53:18;;;;;;;10.25;7.57;;;7.60;99.90;;;;;;5094030;28;20189;-74
2021/03/05 01:55:44;;;;;;;15.48;9.52;;;7.70;99.90;;;;;;5102014;28;20608;-74
2021/03/05 01:58:10;;;;;;;9.65;8.60;;;7.60;99.90;;;;;;5103458;28;20541;-75
2021/03/05 02:00:40;;;;;;;11.60;8.02;;;7.60;99.90;;;;;;5109935;28;20255;-75
2021/03/05 02:03:08;;;;;;;11.43;8.70;;;7.60;99.90;;;;;;5111370;28;20208;-76
2021/03/05 02:05:35;;;;;;;11.23;8.48;;;7.70;99.90;;;;;;5107241;28;20215;-76
2021/03/05 02:08:02;;;;;;;10.45;7.43;;;7.60;99.90;;;;;;5107128;28;20196;-76
2021/03/05 02:10:28;;;;;;;10.07;8.65;;;7.60;99.90;;;;;;5106242;28;20625;-77
2021/03/05 02:12:54;;;;;;;10.50;8.27;;;7.70;99.90;;;;;;5106740;28;20185;-76
2021/03/05 02:15:21;;;;;;;8.77;7.65;;;7.60;99.90;;;;;;5110006;28;20643;-76
2021/03/05 02:17:55;;;;;;;8.27;7.25;;;7.60;99.90;;;;;;5100445;28;20624;-76
2021/03/05 02:20:32;;;;;;;9.60;7.10;;;7.60;99.90;;;;;;5091324;28;20217;-76
2021/03/05 02:23:25;;;;;;;8.40;7.20;;;7.70;99.90;;;;;;5097082;28;20224;-78
2021/03/05 02:26:17;;;;;;;11.75;8.48;;;7.70;99.90;;;;;;5101948;28;20204;-78
2021/03/05 02:29:05;;;;;;;10.38;7.70;;;7.70;99.90;;;;;;5103173;28;20391;-77
2021/03/05 02:31:39;;;;;;;10.05;8.18;;;7.60;99.90;;;;;;5091318;28;20638;-75
2021/03/05 02:34:08;;;;;;;10.38;8.15;;;7.60;99.90;;;;;;5099908;28;20228;-75
2021/03/05 02:36:40;;;;;;;10.35;8.07;;;7.70;99.90;;;;;;5109579;28;20196;-76
2021/03/05 02:39:13;;;;;;;9.88;7.60;;;7.70;99.90;;;;;;5097331;28;20215;-76
2021/03/05 02:41:42;;;;;;;8.30;7.45;;;7.70;99.90;;;;;;5102113;28;20750;-76
2021/03/05 02:44:14;;;;;;;8.98;6.82;;;7.70;99.90;;;;;;5093534;28;20198;-76
2021/03/05 02:46:42;;;;;;;10.07;7.32;;;7.70;99.90;;;;;;5094932;28;20258;-75
2021/03/05 02:49:11;;;;;;;7.93;6.60;;;7.70;99.90;;;;;;5090856;28;20208;-76
2021/03/05 02:51:39;;;;;;;9.70;7.47;;;7.70;99.90;;;;;;5103554;28;20281;-75
2021/03/05 02:54:07;;;;;;;9.85;7.70;;;7.70;99.90;;;;;;5105572;28;20189;-75
2021/03/05 02:56:37;;;;;;;9.80;7.75;;;7.70;99.90;;;;;;5106107;28;20206;-76
2021/03/05 02:59:05;;;;;;;9.73;7.70;;;7.60;99.90;;;;;;5090540;28;20206;-76
2021/03/05 03:01:32;;;;;;;8.43;7.45;;;7.60;99.90;;;;;;5099782;28;20208;-76
2021/03/05 03:04:03;;;;;;;10.32;8.05;;;7.60;99.90;;;;;;5096814;28;20190;-76
2021/03/05 03:06:32;;;;;;;7.97;7.10;;;7.60;99.90;;;;;;5090571;28;20271;-77
2021/03/05 03:09:01;;;;;;;8.93;7.18;;;7.60;99.90;;;;;;5098115;28;20258;-76
2021/03/05 03:11:28;;;;;;;7.10;6.25;;;7.60;99.90;;;;;;5110762;28;20708;-76
2021/03/05 03:13:54;;;;;;;8.40;6.03;;;7.60;99.90;;;;;;5098327;28;20200;-75
2021/03/05 03:16:21;;;;;;;8.60;7.30;;;7.60;99.90;;;;;;5107407;28;20196;-75
2021/03/05 03:18:47;;;;;;;8.07;6.70;;;7.60;99.90;;;;;;5107170;28;20212;-75
2021/03/05 03:21:15;;;;;;;8.63;6.20;;;7.50;99.90;;;;;;5109847;28;20216;-75
2021/03/05 03:23:42;;;;;;;8.82;6.85;;;7.50;99.90;;;;;;5107073;28;20243;-76
2021/03/05 03:26:08;;;;;;;7.65;6.53;;;7.50;99.90;;;;;;5094126;28;20201;-76
2021/03/05 03:28:35;;;;;;;7.13;5.80;;;7.50;99.90;;;;;;5106129;28;20255;-76
2021/03/05 03:31:04;;;;;;;8.63;6.90;;;7.60;99.90;;;;;;5109429;28;20235;-75
2021/03/05 03:33:31;;;;;;;7.05;6.20;;;7.60;99.90;;;;;;5097108;28;20189;-75
2021/03/05 03:36:00;;;;;;;6.10;5.50;;;7.60;99.90;;;;;;5113258;28;20236;-75
2021/03/05 03:38:28;;;;;;;7.18;5.65;;;7.60;99.90;;;;;;5110234;28;20254;-75
2021/03/05 03:40:54;;;;;;;6.43;5.40;;;7.50;99.90;;;;;;5096844;28;20599;-74
2021/03/05 03:43:20;;;;;;;8.90;6.25;;;7.60;99.90;;;;;;5106857;28;20215;-75
2021/03/05 03:45:47;;;;;;;6.50;5.28;;;7.60;99.90;;;;;;5106994;28;20213;-75
2021/03/05 03:48:14;;;;;;;6.68;5.93;;;7.50;99.90;;;;;;5111076;28;20197;-75
2021/03/05 03:50:45;;;;;;;5.47;4.65;;;7.50;99.90;;;;;;5112994;28;20204;-75
2021/03/05 03:53:14;;;;;;;5.43;4.93;;;7.50;99.90;;;;;;5112596;28;20695;-75
2021/03/05 03:55:42;;;;;;;6.53;4.53;;;7.50;99.90;;;;;;5109330;28;20219;-75
2021/03/05 03:58:09;;;;;;;5.35;4.47;;;7.50;99.90;;;;;;5112268;28;20240;-74
2021/03/05 04:00:37;;;;;;;4.20;3.80;;;7.50;99.90;;;;;;5113061;28;20815;-74
2021/03/05 04:03:05;;;;;;;10.85;4.45;;;7.50;99.90;;;;;;5112381;28;20232;-74
2021/03/05 04:05:36;;;;;;;4.70;3.90;;;7.50;99.90;;;;;;5110119;28;20239;-74
2021/03/05 04:08:05;;;;;;;6.35;4.50;;;7.50;99.90;;;;;;5104321;28;20197;-74
2021/03/05 04:10:31;;;;;;;4.60;3.20;;;7.50;99.90;;;;;;5105341;28;20205;-74
2021/03/05 04:12:58;;;;;;;3.33;3.13;;;7.60;99.90;;;;;;5113612;28;20540;-75
2021/03/05 04:15:25;;;;;;;4.57;3.20;;;7.50;99.90;;;;;;5100980;28;20209;-75
2021/03/05 04:17:52;;;;;;;5.03;3.95;;;7.50;99.90;;;;;;5106655;28;20192;-75
2021/03/05 04:20:22;;;;;;;6.20;3.15;;;7.50;99.90;;;;;;5104689;28;20189;-75
2021/03/05 04:22:49;;;;;;;6.07;3.63;;;7.50;99.90;;;;;;5109437;28;20233;-75
2021/03/05 04:25:17;;;;;;;3.42;3.13;;;7.50;99.90;;;;;;5093034;28;20201;-75
2021/03/05 04:27:43;;;;;;;4.10;3.38;;;7.60;99.90;;;;;;5093237;28;20255;-75
2021/03/05 04:30:12;;;;;;;5.15;2.97;;;7.50;99.90;;;;;;5092722;28;20232;-75
2021/03/05 04:32:40;;;;;;;4.85;2.60;;;7.50;99.90;;;;;;5105377;28;20196;-75
2021/03/05 04:35:08;;;;;;;3.95;2.67;;;7.50;99.90;;;;;;5091808;28;20201;-74
2021/03/05 04:37:34;;;;;;;2.58;1.85;;;7.50;99.90;;;;;;5107017;28;20590;-75
2021/03/05 04:40:00;;;;;;;3.30;2.33;;;7.40;99.90;;;;;;5108418;28;20197;-74
2021/03/05 04:42:26;;;;;;;3.85;2.30;;;7.40;99.90;;;;;;5112987;28;20209;-75
2021/03/05 04:44:53;;;;;;;3.80;2.50;;;7.30;99.90;;;;;;5099302;28;20625;-75
2021/03/05 04:47:20;;;;;;;3.22;2.00;;;7.30;99.90;;;;;;5102140;28;20228;-75
2021/03/05 04:49:46;;;;;;;1.98;1.70;;;7.20;99.90;;;;;;5091906;28;20208;-74
2021/03/05 04:52:12;;;;;;;3.50;2.10;;;7.20;99.90;;;;;;5092561;28;20515;-74
2021/03/05 04:54:38;;;;;;;3.05;2.35;;;7.20;99.90;;;;;;5099622;28;20619;-74
2021/03/05 04:57:05;;;;;;;3.15;1.90;;;7.20;99.90;;;;;;5108165;28;20255;-74
2021/03/05 04:59:31;;;;;;;2.45;2.25;;;7.20;99.90;;;;;;5092594;28;20228;-75
2021/03/05 05:01:57;;;;;;;2.72;2.25;;;7.10;99.90;;;;;;5105380;28;20262;-75
2021/03/05 05:04:24;;;;;;;2.63;2.20;;;7.10;99.90;;;;;;5108927;28;20200;-75
2021/03/05 05:06:50;;;;;;;2.30;2.08;;;7.10;99.90;;;;;;5097410;28;20202;-74
2021/03/05 05:09:17;;;;;;;5.35;1.98;;;7.10;99.90;;;;;;5094868;28;20244;-74
2021/03/05 05:11:43;;;;;;;3.40;2.10;;;7.10;99.90;;;;;;5112268;28;20201;-73
2021/03/05 05:14:09;;;;;;;1.85;1.67;;;7.00;99.90;;;;;;5100999;28;20212;-75
2021/03/05 05:16:35;;;;;;;2.15;1.70;;;7.00;99.90;;;;;;5111658;28;20621;-75
2021/03/05 05:19:01;;;;;;;2.40;1.65;;;7.00;99.90;;;;;;5110369;28;20193;-75
2021/03/05 05:21:29;;;;;;;2.70;1.80;;;7.00;99.90;;;;;;5092874;28;20205;-74
2021/03/05 05:23:55;;;;;;;4.53;1.95;;;7.00;99.90;;;;;;5098092;28;20219;-74
2021/03/05 05:26:21;;;;;;;2.13;2.00;;;7.00;99.90;;;;;;5092746;28;20220;-75
2021/03/05 05:28:47;;;;;;;2.50;2.05;;;7.00;99.90;;;;;;5103159;28;20197;-75
2021/03/05 05:31:13;;;;;;;2.92;1.92;;;7.00;99.90;;;;;;5094600;28;20198;-75
2021/03/05 05:33:40;;;;;;;2.60;1.60;;;7.00;99.90;;;;;;5096860;28;20188;-74
2021/03/05 05:36:07;;;;;;;3.33;1.98;;;6.90;99.90;;;;;;5112725;28;20193;-75
2021/03/05 05:38:34;;;;;;;2.30;2.00;;;7.00;99.90;;;;;;5112045;28;20197;-75
2021/03/05 05:41:01;;;;;;;2.03;1.75;;;6.90;99.90;;;;;;5111181;28;20201;-76
2021/03/05 05:43:31;;;;;;;3.03;2.08;;;6.90;99.90;;;;;;5112469;28;20228;-76
2021/03/05 05:46:02;;;;;;;2.20;2.00;;;6.90;99.90;;;;;;5097951;28;20201;-75
2021/03/05 05:48:29;;;;;;;3.08;1.75;;;6.90;99.90;;;;;;5090810;28;20193;-74
2021/03/05 05:50:58;;;;;;;1.52;1.40;;;6.90;99.90;;;;;;5103918;28;20212;-74
2021/03/05 05:53:30;;;;;;;6.75;1.85;;;6.90;99.90;;;;;;5091189;28;20200;-73
2021/03/05 05:55:58;;;;;;;2.92;1.55;;;6.90;99.90;;;;;;5107595;28;20200;-74
2021/03/05 05:58:26;;;;;;;2.95;1.95;;;6.80;99.90;;;;;;5103684;28;20286;-74
2021/03/05 06:00:57;;;;;;;2.15;1.65;;;6.80;99.90;;;;;;5107829;28;20196;-74
2021/03/05 06:03:29;;;;;;;1.70;1.38;;;6.80;99.90;;;;;;5097795;28;20220;-74
2021/03/05 06:05:57;;;;;;;2.35;1.80;;;6.70;99.90;;;;;;5102731;28;20201;-74
2021/03/05 06:08:23;;;;;;;2.97;1.42;;;6.80;99.90;;;;;;5093156;28;20692;-74
2021/03/05 06:10:52;;;;;;;2.35;1.42;;;6.70;99.90;;;;;;5110437;28;20204;-74
2021/03/05 06:13:19;;;;;;;2.92;1.83;;;6.70;99.90;;;;;;5106335;28;20629;-74
2021/03/05 06:15:46;;;;;;;3.25;1.80;;;6.70;99.90;;;;;;5107822;28;20514;-74
2021/03/05 06:18:30;;;;;;;2.20;1.30;;;6.70;99.90;;;;;;5094784;28;20704;-74
2021/03/05 06:20:56;;;;;;;3.20;1.50;;;6.70;99.90;;;;;;5094618;28;20259;-74
2021/03/05 06:23:23;;;;;;;2.40;1.75;;;6.70;99.90;;;;;;5090626;28;20235;-73
2021/03/05 06:25:58;;;;;;;2.17;1.50;;;6.70;99.90;;;;;;5105281;28;20748;-74
2021/03/05 06:28:25;;;;;;;2.35;1.60;;;6.60;99.90;;;;;;5091406;28;20237;-74
2021/03/05 06:30:51;;;;;;;1.27;1.00;;;6.70;99.90;;;;;;5106664;28;20595;-74
2021/03/05 06:33:26;;;;;;;2.13;1.30;;;6.70;99.90;;;;;;5109686;28;20203;-75
2021/03/05 06:35:53;;;;;;;1.98;1.38;;;6.70;99.90;;;;;;5104027;28;20682;-74
2021/03/05 06:38:39;;;;;;;2.85;1.30;;;6.70;99.90;;;;;;5090212;28;20254;-74
2021/03/05 06:41:20;;;;;;;3.53;1.75;;;6.70;99.90;;;;;;5097597;28;20236;-74
2021/03/05 06:43:48;;;;;;;2.58;1.40;;;6.70;99.90;;;;;;5095525;28;20299;-75
2021/03/05 06:46:35;;;;;;;2.78;1.65;;;6.60;99.90;;;;;;5097788;28;20219;-75
2021/03/05 06:49:03;;;;;;;2.38;1.25;;;6.60;99.90;;;;;;5109700;28;20204;-75
2021/03/05 06:51:29;;;;;;;2.17;1.60;;;6.70;99.90;;;;;;5106263;28;20572;-75
2021/03/05 06:54:10;;;;;;;1.40;1.30;;;6.80;99.90;;;;;;5096128;28;20242;-75
2021/03/05 06:56:38;;;;;;;2.45;1.40;;;6.70;99.90;;;;;;5104757;28;20205;-75
2021/03/05 06:59:07;;;;;;;6.18;1.45;;;6.70;99.90;;;;;;5101333;28;20200;-75
2021/03/05 07:01:48;;;;;;;3.80;1.60;;;6.70;99.90;;;;;;5113658;28;20196;-75
2021/03/05 07:04:16;;;;;;;1.58;1.40;;;6.70;99.90;;;;;;5093762;28;20214;-74
2021/03/05 07:06:43;;;;;;;3.38;1.65;;;6.60;99.90;;;;;;5094941;28;20258;-75
2021/03/05 07:09:10;;;;;;;3.25;1.40;;;6.60;99.90;;;;;;5094394;28;20200;-75
2021/03/05 07:11:43;;;;;;;1.70;1.55;;;6.60;99.90;;;;;;5103518;28;20235;-74
2021/03/05 07:14:12;;;;;;;1.52;1.40;;;6.70;99.90;;;;;;5094829;28;20193;-74
2021/03/05 07:16:49;;;;;;;4.85;1.45;;;6.70;99.90;;;;;;5093526;28;20197;-74
2021/03/05 07:19:17;;;;;;;2.42;1.60;;;6.70;99.90;;;;;;5096299;28;20204;-75
2021/03/05 07:21:45;;;;;;;6.45;1.55;;;6.80;99.90;;;;;;5112342;28;20200;-73
2021/03/05 07:24:14;;;;;;;3.33;1.30;;;6.90;99.90;;;;;;5111146;28;20204;-76
2021/03/05 07:26:52;;;;;;;1.90;1.65;;;6.90;99.90;;;;;;5094080;28;20248;-78
2021/03/05 07:29:24;;;;;;;3.03;1.83;;;7.10;99.90;;;;;;5094212;28;20198;-73
2021/03/05 07:31:59;;;;;;;3.28;1.70;;;7.30;99.90;;;;;;5108981;28;20239;-74
2021/03/05 07:34:27;;;;;;;2.00;1.50;;;7.30;99.90;;;;;;5097288;28;20230;-77
2021/03/05 07:36:56;;;;;;;3.80;1.80;;;7.40;99.90;;;;;;5105956;28;20208;-77
2021/03/05 07:39:25;;;;;;;2.88;1.58;;;7.50;99.90;;;;;;5116291;27;20659;-77
2021/03/05 07:41:53;;;;;;;2.30;1.27;;;7.60;99.90;;;;;;5112329;27;20190;-78
2021/03/05 07:44:21;;;;;;;2.60;1.70;;;7.60;99.90;;;;;;5095054;28;20229;-77
2021/03/05 07:46:48;;;;;;;2.03;1.30;;;7.70;99.90;;;;;;5102489;28;20680;-78
2021/03/05 07:49:15;;;;;;;2.55;1.45;;;7.70;99.90;;;;;;5111830;28;20208;-78
2021/03/05 07:51:42;;;;;;;2.55;1.60;;;7.80;99.90;;;;;;5106411;28;20194;-77
2021/03/05 07:54:09;;;;;;;2.63;1.80;;;7.80;99.90;;;;;;5099281;28;20204;-78
2021/03/05 07:56:43;;;;;;;2.40;1.73;;;7.80;99.90;;;;;;5106239;28;20194;-78
2021/03/05 07:59:10;;;;;;;4.78;1.60;;;7.90;99.90;;;;;;5100028;28;20246;-78
2021/03/05 08:01:59;;;;;;;6.65;1.50;;;8.00;99.90;;;;;;5103338;28;20201;-78
2021/03/05 08:05:03;;;;;;;1.80;1.30;;;8.00;99.90;;;;;;5105609;28;20221;-78
2021/03/05 08:07:31;;;;;;;3.88;1.70;;;8.10;99.90;;;;;;5100818;28;20207;-78
2021/03/05 08:09:58;;;;;;;1.80;1.50;;;8.10;99.90;;;;;;5099008;28;20209;-77
2021/03/05 08:12:39;;;;;;;1.60;1.20;;;8.20;99.90;;;;;;5114232;28;20713;-77
2021/03/05 08:15:25;;;;;;;2.90;1.40;;;8.30;99.90;;;;;;5109930;28;20197;-77
2021/03/05 08:17:54;;;;;;;30.08;12.25;;;8.30;99.90;;;;;;5100851;28;20196;-77
2021/03/05 08:20:49;;;;;;;12.35;6.35;;;8.40;99.90;;;;;;5104699;28;20622;-76
2021/03/05 08:23:16;;;;;;;11.13;7.05;;;8.10;99.90;;;;;;5094792;28;20649;-76
2021/03/05 08:25:54;;;;;;;8.68;4.07;;;8.30;99.90;;;;;;5101017;28;20274;-77
2021/03/05 08:28:52;;;;;;;11.35;5.18;;;8.30;99.90;;;;;;5097268;28;20256;-77
2021/03/05 08:31:37;;;;;;;7.97;4.97;;;8.40;99.90;;;;;;5019449;28;20192;-76
2021/03/05 08:34:29;;;;;;;9.82;5.00;;;8.50;99.90;;;;;;5087560;28;20661;-76
2021/03/05 08:36:56;;;;;;;8.07;4.25;;;8.60;99.90;;;;;;5111665;28;20246;-77
2021/03/05 08:39:24;;;;;;;8.52;3.42;;;8.70;99.90;;;;;;5092396;28;20205;-77
2021/03/05 08:42:30;;;;;;;9.48;3.40;;;8.70;99.90;;;;;;5104163;28;20237;-77
2021/03/05 08:45:16;;;;;;;6.78;3.38;;;8.70;99.90;;;;;;5099427;28;20189;-76
2021/03/05 08:47:44;;;;;;;6.28;3.05;;;8.80;99.90;;;;;;5105278;28;20207;-77
2021/03/05 08:50:13;;;;;;;8.40;3.15;;;8.80;99.90;;;;;;5097613;28;20190;-76
2021/03/05 08:52:40;;;;;;;7.03;3.78;;;8.80;99.90;;;;;;5092287;28;20784;-76
2021/03/05 08:55:08;;;;;;;6.60;3.08;;;8.80;99.90;;;;;;5099880;28;20201;-76
2021/03/05 08:57:38;;;;;;;9.25;3.05;;;8.90;99.90;;;;;;5092387;28;20198;-76
2021/03/05 09:00:06;;;;;;;6.15;2.35;;;8.80;99.90;;;;;;5097119;28;20193;-76
2021/03/05 09:02:32;;;;;;;5.07;2.80;;;8.80;99.90;;;;;;5107804;28;20213;-77
2021/03/05 09:04:58;;;;;;;5.20;2.10;;;8.90;99.90;;;;;;5095562;28;20194;-76
2021/03/05 09:07:25;;;;;;;6.07;1.80;;;8.80;99.90;;;;;;5092006;28;20587;-76
2021/03/05 09:09:52;;;;;;;2.80;2.10;;;8.80;99.90;;;;;;5092062;28;20201;-76
2021/03/05 09:12:21;;;;;;;3.55;2.45;;;8.80;99.90;;;;;;5107937;28;20197;-76
2021/03/05 09:14:57;;;;;;;4.75;2.30;;;8.80;99.90;;;;;;5110146;28;20640;-77
2021/03/05 09:17:23;;;;;;;4.82;2.50;;;8.90;99.90;;;;;;5099794;28;20204;-76
2021/03/05 09:19:51;;;;;;;3.85;1.92;;;8.90;99.90;;;;;;5094936;28;20657;-76
2021/03/05 09:22:19;;;;;;;3.25;1.98;;;8.80;99.90;;;;;;5111609;28;20239;-76
2021/03/05 09:24:54;;;;;;;2.67;1.58;;;8.80;99.90;;;;;;5098965;28;20205;-76
2021/03/05 09:27:22;;;;;;;2.25;1.52;;;8.80;99.90;;;;;;5091227;28;20205;-76
2021/03/05 09:29:48;;;;;;;4.43;1.90;;;8.80;99.90;;;;;;5105502;28;20215;-78
2021/03/05 09:32:15;;;;;;;6.40;2.45;;;8.60;97.50;;;;;;5103631;28;20202;-77
2021/03/05 09:34:48;;;;;;;2.90;1.70;;;8.40;98.60;;;;;;5108186;28;20261;-77
2021/03/05 09:37:16;;;;;;;7.15;2.05;;;8.50;99.90;;;;;;5111513;28;20205;-77
2021/03/05 09:39:42;;;;;;;4.38;1.80;;;8.60;99.90;;;;;;5093327;28;20193;-76
2021/03/05 09:42:09;;;;;;;3.85;1.70;;;8.60;99.90;;;;;;5102551;27;20201;-76
2021/03/05 09:44:42;;;;;;;4.60;1.85;;;8.60;99.90;;;;;;5097723;28;20235;-76
2021/03/05 09:47:08;;;;;;;2.97;1.42;;;8.60;99.90;;;;;;5103726;27;20205;-77
2021/03/05 09:49:34;;;;;;;3.83;1.45;;;8.70;99.90;;;;;;5101734;28;20213;-78
2021/03/05 09:52:00;;;;;;;4.93;1.92;;;8.70;99.90;;;;;;5110989;28;20201;-78
2021/03/05 09:54:41;;;;;;;1.77;1.33;;;8.70;99.90;;;;;;5109945;28;20192;-78
2021/03/05 09:57:10;;;;;;;2.95;1.85;;;8.70;99.90;;;;;;5110688;28;20193;-78
2021/03/05 09:59:41;;;;;;;4.28;1.90;;;8.70;99.90;;;;;;5119342;27;20200;-78
2021/03/05 10:02:08;;;;;;;3.28;1.92;;;8.70;99.90;;;;;;5092875;28;20197;-78
2021/03/05 10:04:42;;;;;;;4.22;1.38;;;8.70;99.90;;;;;;5089349;28;20530;-77
2021/03/05 10:07:09;;;;;;;1.60;1.27;;;8.70;99.90;;;;;;5090246;28;20252;-77
2021/03/05 10:09:35;;;;;;;4.82;1.35;;;8.70;99.90;;;;;;5090518;28;20253;-76
2021/03/05 10:12:01;;;;;;;4.63;1.42;;;8.70;99.90;;;;;;5109535;28;20216;-76
2021/03/05 10:14:31;;;;;;;4.13;1.75;;;8.70;99.90;;;;;;5107223;28;20196;-77
2021/03/05 10:17:07;;;;;;;2.65;1.75;;;8.60;99.90;;;;;;5091501;28;20197;-76
2021/03/05 10:19:33;;;;;;;2.53;1.33;;;8.60;99.90;;;;;;5101809;28;20199;-77
2021/03/05 10:22:00;;;;;;;2.70;1.40;;;8.70;99.90;;;;;;5101050;28;20220;-77
2021/03/05 10:24:28;;;;;;;6.50;1.75;;;8.70;99.90;;;;;;5089643;28;20213;-76
2021/03/05 10:27:16;;;;;;;2.45;1.20;;;8.60;99.90;;;;;;5091468;28;20545;-77
2021/03/05 10:29:45;;;;;;;1.75;1.48;;;8.60;99.90;;;;;;5104139;28;20189;-76
2021/03/05 10:32:22;;;;;;;4.55;1.70;;;8.50;99.90;;;;;;5094376;28;20197;-77
2021/03/05 10:34:49;;;;;;;2.10;1.20;;;8.50;99.90;;;;;;5106283;28;20201;-77
2021/03/05 10:37:16;;;;;;;3.92;1.33;;;8.50;99.90;;;;;;5100907;28;20201;-77
2021/03/05 10:39:44;;;;;;;4.03;1.60;;;8.60;99.90;;;;;;5102746;28;20636;-76
2021/03/05 10:42:13;;;;;;;11.73;1.65;;;8.50;99.90;;;;;;5102808;28;20197;-77
2021/03/05 10:44:40;;;;;;;4.95;1.30;;;8.50;99.90;;;;;;5115070;28;20212;-77
2021/03/05 10:47:10;;;;;;;2.10;0.90;;;8.50;99.90;;;;;;5110399;28;20220;-77
2021/03/05 10:49:37;;;;;;;2.03;1.10;;;8.50;99.90;;;;;;5112074;28;20262;-77
2021/03/05 10:52:04;;;;;;;2.60;1.17;;;8.50;99.90;;;;;;5106852;28;20202;-77
2021/03/05 10:54:31;;;;;;;2.28;0.88;;;8.50;99.70;;;;;;5096343;28;20581;-77
2021/03/05 10:56:57;;;;;;;3.30;1.40;;;8.50;99.90;;;;;;5094682;28;20201;-77
2021/03/05 10:59:24;;;;;;;3.85;1.20;;;8.50;99.90;;;;;;5094219;28;20576;-78
2021/03/05 11:01:52;;;;;;;1.55;1.15;;;8.50;99.90;;;;;;5104592;28;20197;-76
2021/03/05 11:04:20;;;;;;;2.65;1.92;;;8.40;99.90;;;;;;5104646;28;20209;-76
2021/03/05 11:06:46;;;;;;;2.45;1.20;;;8.40;99.90;;;;;;5104037;28;20611;-77
2021/03/05 11:09:13;;;;;;;1.88;0.90;;;8.40;99.90;;;;;;5102013;28;20287;-77
2021/03/05 11:11:39;;;;;;;2.67;1.00;;;8.30;99.10;;;;;;5096727;28;20201;-76
2021/03/05 11:14:05;;;;;;;1.55;1.02;;;8.20;98.80;;;;;;5109799;28;20208;-77
2021/03/05 11:16:31;;;;;;;1.52;1.27;;;8.20;99.90;;;;;;5113088;28;20230;-77
2021/03/05 11:18:57;;;;;;;1.67;0.95;;;8.20;99.80;;;;;;5112331;28;20194;-77
2021/03/05 11:21:25;;;;;;;1.52;1.00;;;8.10;99.90;;;;;;5109423;28;20258;-77
2021/03/05 11:23:51;;;;;;;1.65;0.90;;;8.10;99.90;;;;;;5102629;27;20224;-77
2021/03/05 11:26:18;;;;;;;1.65;1.20;;;8.10;99.90;;;;;;5104842;28;20630;-77
2021/03/05 11:28:44;;;;;;;1.27;1.13;;;8.10;99.30;;;;;;5106990;28;20189;-76
2021/03/05 11:31:11;;;;;;;1.40;1.20;;;8.10;99.90;;;;;;5099477;28;20536;-76
2021/03/05 11:33:39;;;;;;;4.13;1.40;;;8.10;99.90;;;;;;5095931;28;20194;-75
2021/03/05 11:36:05;;;;;;;3.65;1.30;;;8.10;99.90;;;;;;5105420;28;20189;-81
2021/03/05 11:38:33;;;;;;;2.95;1.10;;;8.10;99.50;;;;;;5110293;28;20236;-88
2021/03/05 11:41:00;;;;;;;2.65;1.10;;;8.00;98.90;;;;;;5100844;27;20209;-86
2021/03/05 11:43:26;;;;;;;1.70;1.10;;;8.00;99.90;;;;;;5102235;27;20736;-86
2021/03/05 11:45:52;;;;;;;2.53;1.40;;;8.00;98.60;;;;;;5098047;28;20621;-79
2021/03/05 11:48:19;;;;;;;1.70;1.30;;;8.00;98.20;;;;;;5080748;22;20234;-77
2021/03/05 11:50:45;;;;;;;6.25;1.30;;;8.00;98.60;;;;;;5012550;28;20216;-78
2021/03/05 11:53:11;;;;;;;3.80;1.27;;;7.90;98.20;;;;;;5007895;28;20231;-77
2021/03/05 11:55:38;;;;;;;3.75;1.45;;;7.90;97.70;;;;;;5005186;28;20711;-77
2021/03/05 11:58:05;;;;;;;1.17;1.08;;;7.80;97.70;;;;;;5006938;28;20836;-77
2021/03/05 12:00:31;;;;;;;1.70;1.20;;;7.80;97.20;;;;;;5002901;28;20193;-80
2021/03/05 12:02:58;;;;;;;2.65;1.33;;;7.90;95.80;;;;;;5005658;28;20227;-78
2021/03/05 12:05:24;;;;;;;2.47;1.48;;;7.80;98.50;;;;;;5010494;28;20245;-79
2021/03/05 12:07:51;;;;;;;1.70;1.10;;;7.80;96.40;;;;;;5003124;28;20910;-78
2021/03/05 12:10:17;;;;;;;2.30;1.20;;;7.80;98.90;;;;;;5004296;28;20207;-78
2021/03/05 12:12:45;;;;;;;1.20;1.00;;;7.80;98.80;;;;;;5000917;28;20201;-79
2021/03/05 12:15:12;;;;;;;2.30;1.10;;;7.80;97.70;;;;;;5013127;28;20224;-78
2021/03/05 12:17:38;;;;;;;5.10;1.45;;;7.80;97.60;;;;;;5009662;28;20262;-79
2021/03/05 12:20:06;;;;;;;2.20;1.27;;;7.80;99.80;;;;;;5004379;28;20217;-79
2021/03/05 12:22:32;;;;;;;1.20;1.10;;;7.70;98.60;;;;;;5005912;28;20252;-78
2021/03/05 12:24:59;;;;;;;3.85;1.67;;;7.70;97.70;;;;;;5004899;28;20419;-77
2021/03/05 12:27:25;;;;;;;1.70;1.10;;;7.70;96.30;;;;;;5002411;28;20201;-78
2021/03/05 12:29:52;;;;;;;2.95;0.98;;;7.50;96.40;;;;;;5010388;28;20219;-79
2021/03/05 12:32:18;;;;;;;1.52;0.80;;;7.50;96.50;;;;;;5009893;28;20249;-79
2021/03/05 12:34:45;;;;;;;1.30;0.90;;;7.50;97.40;;;;;;5010397;28;20231;-79
2021/03/05 12:37:11;;;;;;;2.42;1.25;;;7.60;96.70;;;;;;5007970;28;20203;-78
2021/03/05 12:39:38;;;;;;;1.33;1.10;;;7.60;97.60;;;;;;5012056;28;20228;-79
2021/03/05 12:42:05;;;;;;;1.48;1.15;;;7.60;95.40;;;;;;5010788;28;20291;-78
2021/03/05 12:44:31;;;;;;;2.13;1.38;;;7.50;96.60;;;;;;5007224;28;20695;-78
2021/03/05 12:46:58;;;;;;;2.08;0.93;;;7.50;95.00;;;;;;5012728;28;20197;-78
2021/03/05 12:49:24;;;;;;;2.58;1.10;;;7.60;95.80;;;;;;5010911;28;20236;-78
2021/03/05 12:51:51;;;;;;;2.03;1.05;;;7.50;94.60;;;;;;5010765;28;20196;-78
2021/03/05 12:54:17;;;;;;;1.30;1.02;;;7.50;96.00;;;;;;5004632;28;20208;-78
2021/03/05 12:56:43;;;;;;;2.08;1.42;;;7.60;97.90;;;;;;5011611;28;20224;-78
2021/03/05 12:59:10;;;;;;;1.55;1.25;;;7.60;96.40;;;;;;5010987;28;20189;-78
2021/03/05 13:01:36;;;;;;;2.13;1.08;;;7.70;98.30;;;;;;5010290;28;20248;-78
2021/03/05 13:04:04;;;;;;;2.95;1.00;;;7.70;96.30;;;;;;5008676;28;20250;-77